Time;durP1;ratioP1;P1;durP2;ratioP2;P2;SDS_P1;SDS_P2;PMS_P1;PMS_P2;Temp;Humidity;BMP_temperature;BMP_pressure;BME280_temperature;BME280_humidity;BME280_pressure;Samples;Min_cycle;Max_cycle;Signal;HPM_P1;HPM_P2
2023/10/20 00:00:58;;;;;;;4.57;3.88;;;;;;;;;;5005530;28;20026;-60
2023/10/20 00:03:23;;;;;;;5.30;4.00;;;;;;;;;;5004681;28;20037;-60
2023/10/20 00:05:48;;;;;;;5.28;4.13;;;;;;;;;;5005886;28;20285;-60
2023/10/20 00:08:14;;;;;;;4.80;3.93;;;;;;;;;;5004540;28;20029;-61
2023/10/20 00:10:40;;;;;;;5.83;3.87;;;;;;;;;;5004115;28;20684;-60
2023/10/20 00:13:05;;;;;;;4.63;4.00;;;;;;;;;;5006023;28;20793;-60
2023/10/20 00:15:30;;;;;;;5.38;3.92;;;;;;;;;;5006010;28;20046;-59
2023/10/20 00:17:55;;;;;;;4.93;3.93;;;;;;;;;;5005937;28;20030;-59
2023/10/20 00:20:21;;;;;;;5.03;3.93;;;;;;;;;;4989911;28;20288;-59
2023/10/20 00:22:46;;;;;;;5.00;3.60;;;;;;;;;;5005514;28;20281;-60
2023/10/20 00:25:11;;;;;;;4.97;4.23;;;;;;;;;;5005692;28;20034;-60
2023/10/20 00:27:37;;;;;;;5.45;4.00;;;;;;;;;;5003677;28;20678;-60
2023/10/20 00:30:02;;;;;;;5.93;4.20;;;;;;;;;;5002583;28;20072;-60
2023/10/20 00:32:30;;;;;;;5.72;4.20;;;;;;;;;;5004305;28;20450;-59
2023/10/20 00:34:56;;;;;;;5.20;4.07;;;;;;;;;;5003210;28;20133;-59
2023/10/20 00:37:21;;;;;;;4.93;3.80;;;;;;;;;;5006061;28;20128;-59
2023/10/20 00:39:46;;;;;;;5.10;3.50;;;;;;;;;;5004726;28;20034;-61
2023/10/20 00:42:12;;;;;;;4.80;3.60;;;;;;;;;;5005310;28;20273;-59
2023/10/20 00:44:38;;;;;;;5.40;4.30;;;;;;;;;;5002568;28;20724;-60
2023/10/20 00:47:04;;;;;;;5.35;3.85;;;;;;;;;;5005549;28;20037;-60
2023/10/20 00:49:29;;;;;;;4.50;3.70;;;;;;;;;;4993921;28;20434;-60
2023/10/20 00:51:54;;;;;;;6.10;3.85;;;;;;;;;;4988152;28;20483;-60
2023/10/20 00:54:20;;;;;;;5.10;3.47;;;;;;;;;;4996789;28;20138;-60
2023/10/20 00:56:45;;;;;;;5.45;4.13;;;;;;;;;;4997319;28;20439;-60
2023/10/20 00:59:11;;;;;;;4.90;3.60;;;;;;;;;;5003482;28;20542;-62
2023/10/20 01:01:36;;;;;;;5.30;3.93;;;;;;;;;;5003763;28;20120;-60
2023/10/20 01:04:02;;;;;;;4.00;3.10;;;;;;;;;;5004717;28;20288;-61
2023/10/20 01:06:27;;;;;;;5.70;4.00;;;;;;;;;;5004283;28;20102;-60
2023/10/20 01:08:56;;;;;;;4.82;3.85;;;;;;;;;;5003794;28;20463;-60
2023/10/20 01:11:21;;;;;;;6.35;3.95;;;;;;;;;;5005627;28;20049;-61
2023/10/20 01:13:47;;;;;;;4.60;3.30;;;;;;;;;;5003302;28;20461;-59
2023/10/20 01:16:12;;;;;;;4.95;3.90;;;;;;;;;;5006547;28;20105;-60
2023/10/20 01:18:37;;;;;;;5.88;3.95;;;;;;;;;;5008149;28;20837;-59
2023/10/20 01:21:04;;;;;;;4.95;3.58;;;;;;;;;;5007164;28;20176;-59
2023/10/20 01:23:29;;;;;;;4.65;3.80;;;;;;;;;;4995847;28;20117;-62
2023/10/20 01:25:56;;;;;;;4.82;3.67;;;;;;;;;;5004166;28;20578;-60
2023/10/20 01:28:21;;;;;;;4.65;3.72;;;;;;;;;;5006458;28;20049;-60
2023/10/20 01:30:47;;;;;;;4.40;3.60;;;;;;;;;;5008284;28;20034;-60
2023/10/20 01:33:12;;;;;;;5.30;3.35;;;;;;;;;;5005112;28;20292;-60
2023/10/20 01:35:38;;;;;;;4.80;3.55;;;;;;;;;;4996567;28;20054;-60
2023/10/20 01:38:03;;;;;;;4.90;3.72;;;;;;;;;;5005176;28;20034;-60
2023/10/20 01:40:29;;;;;;;5.03;3.70;;;;;;;;;;5007530;28;20502;-60
2023/10/20 01:42:54;;;;;;;3.90;3.38;;;;;;;;;;5007012;28;20438;-60
2023/10/20 01:45:20;;;;;;;4.68;3.60;;;;;;;;;;5006863;28;20184;-60
2023/10/20 01:47:45;;;;;;;5.07;3.92;;;;;;;;;;5008373;28;20033;-60
2023/10/20 01:50:12;;;;;;;4.78;3.35;;;;;;;;;;4995829;28;20121;-60
2023/10/20 01:52:37;;;;;;;4.55;3.70;;;;;;;;;;4999690;28;20058;-60
2023/10/20 01:55:02;;;;;;;5.20;3.57;;;;;;;;;;5006012;28;20041;-60
2023/10/20 01:57:28;;;;;;;4.15;3.50;;;;;;;;;;5007626;28;20362;-60
2023/10/20 01:59:53;;;;;;;4.68;3.63;;;;;;;;;;4997343;28;20129;-60
2023/10/20 02:02:18;;;;;;;4.65;3.70;;;;;;;;;;4988469;28;20092;-60
2023/10/20 02:04:44;;;;;;;3.92;3.40;;;;;;;;;;5007011;28;20498;-60
2023/10/20 02:07:10;;;;;;;4.80;3.80;;;;;;;;;;4990021;28;20034;-60
2023/10/20 02:09:35;;;;;;;4.78;3.83;;;;;;;;;;5007148;28;20036;-60
2023/10/20 02:12:03;;;;;;;4.47;3.60;;;;;;;;;;5006619;28;20038;-59
2023/10/20 02:14:28;;;;;;;4.38;3.70;;;;;;;;;;4990237;28;20788;-61
2023/10/20 02:16:54;;;;;;;4.30;3.63;;;;;;;;;;5007891;28;21151;-60
2023/10/20 02:19:19;;;;;;;4.68;3.45;;;;;;;;;;5007169;28;20379;-60
2023/10/20 02:21:47;;;;;;;3.92;3.35;;;;;;;;;;5006465;28;20048;-60
2023/10/20 02:24:12;;;;;;;4.95;3.88;;;;;;;;;;5006612;28;20100;-59
2023/10/20 02:26:37;;;;;;;4.15;3.63;;;;;;;;;;5005739;28;20159;-60
2023/10/20 02:29:03;;;;;;;4.13;3.60;;;;;;;;;;5006287;28;20745;-59
2023/10/20 02:31:28;;;;;;;4.65;3.22;;;;;;;;;;5006947;28;20061;-59
2023/10/20 02:33:53;;;;;;;4.50;3.33;;;;;;;;;;5002802;28;20132;-59
2023/10/20 02:36:19;;;;;;;5.37;3.47;;;;;;;;;;5003942;28;20033;-59
2023/10/20 02:38:45;;;;;;;4.30;3.22;;;;;;;;;;5017184;28;20796;-59
2023/10/20 02:41:10;;;;;;;4.60;3.50;;;;;;;;;;5001922;28;20045;-59
2023/10/20 02:43:36;;;;;;;4.25;3.30;;;;;;;;;;4997776;28;20194;-59
2023/10/20 02:46:02;;;;;;;4.05;3.30;;;;;;;;;;5000816;28;20041;-59
2023/10/20 02:48:28;;;;;;;4.07;3.30;;;;;;;;;;5028868;23;20391;-59
2023/10/20 02:50:53;;;;;;;4.32;3.53;;;;;;;;;;5003597;28;20232;-60
2023/10/20 02:53:19;;;;;;;5.47;3.75;;;;;;;;;;5003935;28;20549;-60
2023/10/20 02:55:44;;;;;;;4.32;3.20;;;;;;;;;;5003316;28;20030;-61
2023/10/20 02:58:13;;;;;;;4.22;3.25;;;;;;;;;;5000703;28;20136;-60
2023/10/20 03:00:42;;;;;;;4.28;3.60;;;;;;;;;;5025688;23;20066;-56
2023/10/20 03:03:08;;;;;;;4.63;3.42;;;;;;;;;;5014506;28;20042;-55
2023/10/20 03:05:33;;;;;;;4.28;3.17;;;;;;;;;;5016230;28;20044;-57
2023/10/20 03:07:58;;;;;;;5.43;3.80;;;;;;;;;;5016272;28;20095;-56
2023/10/20 03:10:24;;;;;;;3.50;2.93;;;;;;;;;;5016017;28;21660;-57
2023/10/20 03:12:50;;;;;;;4.45;3.38;;;;;;;;;;5015131;28;20302;-56
2023/10/20 03:15:15;;;;;;;3.93;3.37;;;;;;;;;;5010080;28;20140;-57
2023/10/20 03:17:40;;;;;;;3.80;3.35;;;;;;;;;;5016142;28;20547;-56
2023/10/20 03:20:14;;;;;;;3.75;3.03;;;;;;;;;;5016101;28;20036;-56
2023/10/20 03:22:39;;;;;;;3.70;3.20;;;;;;;;;;5017102;28;20037;-57
2023/10/20 03:25:07;;;;;;;4.03;3.15;;;;;;;;;;5015955;28;20048;-57
2023/10/20 03:27:33;;;;;;;4.22;3.20;;;;;;;;;;5014614;28;20033;-57
2023/10/20 03:29:58;;;;;;;4.28;3.22;;;;;;;;;;5014164;28;21676;-56
2023/10/20 03:32:23;;;;;;;4.03;3.15;;;;;;;;;;5015280;28;20471;-55
2023/10/20 03:34:48;;;;;;;4.57;3.45;;;;;;;;;;5016198;28;20464;-57
2023/10/20 03:37:14;;;;;;;4.47;3.28;;;;;;;;;;5016520;28;20033;-57
2023/10/20 03:39:39;;;;;;;3.65;3.10;;;;;;;;;;5015195;28;20030;-57
2023/10/20 03:42:07;;;;;;;4.50;3.40;;;;;;;;;;5010424;28;20037;-56
2023/10/20 03:44:33;;;;;;;4.28;3.28;;;;;;;;;;5014170;28;20105;-57
2023/10/20 03:46:59;;;;;;;4.20;3.20;;;;;;;;;;5008555;28;20072;-56
2023/10/20 03:49:25;;;;;;;4.53;3.40;;;;;;;;;;5016664;28;20453;-56
2023/10/20 03:51:50;;;;;;;3.90;3.08;;;;;;;;;;5016706;28;20308;-56
2023/10/20 03:54:16;;;;;;;3.70;3.17;;;;;;;;;;5015589;28;20065;-57
2023/10/20 03:56:41;;;;;;;4.85;3.45;;;;;;;;;;5011769;28;20505;-58
2023/10/20 03:59:07;;;;;;;3.58;2.90;;;;;;;;;;5015227;28;20041;-56
2023/10/20 04:01:33;;;;;;;3.85;3.10;;;;;;;;;;5013981;28;20100;-56
2023/10/20 04:03:58;;;;;;;4.30;2.97;;;;;;;;;;5015528;28;20069;-56
2023/10/20 04:06:24;;;;;;;3.58;3.20;;;;;;;;;;5015723;28;20314;-58
2023/10/20 04:08:49;;;;;;;4.55;3.00;;;;;;;;;;5010574;28;20520;-55
2023/10/20 04:11:14;;;;;;;5.03;3.60;;;;;;;;;;5015685;28;20083;-56
2023/10/20 04:13:39;;;;;;;3.92;3.17;;;;;;;;;;5016218;28;20300;-56
2023/10/20 04:16:11;;;;;;;3.65;2.97;;;;;;;;;;5014306;28;20045;-56
2023/10/20 04:18:37;;;;;;;4.53;3.35;;;;;;;;;;5016749;28;20048;-57
2023/10/20 04:21:03;;;;;;;4.82;3.25;;;;;;;;;;5015720;28;20037;-57
2023/10/20 04:23:28;;;;;;;3.20;2.88;;;;;;;;;;5014710;28;20072;-56
2023/10/20 04:25:53;;;;;;;3.77;3.00;;;;;;;;;;5014903;28;20264;-56
2023/10/20 04:28:32;;;;;;;3.63;2.95;;;;;;;;;;5013342;28;20300;-57
2023/10/20 04:42:43;;;;;;;3.85;2.90;;;;;;;;;;5014019;28;20500;-57
2023/10/20 04:57:53;;;;;;;3.93;3.30;;;;;;;;;;4996586;28;20029;-56
2023/10/20 05:07:51;;;;;;;5.13;3.08;;;;;;;;;;5014394;28;20040;-56
2023/10/20 05:10:17;;;;;;;6.18;3.20;;;;;;;;;;5018177;28;20238;-55
2023/10/20 05:12:43;;;;;;;3.83;3.05;;;;;;;;;;5018739;28;20473;-57
2023/10/20 05:15:10;;;;;;;4.50;3.30;;;;;;;;;;5018929;28;20064;-57
2023/10/20 05:17:35;;;;;;;4.65;3.28;;;;;;;;;;5018167;28;20531;-55
2023/10/20 05:20:01;;;;;;;4.63;3.40;;;;;;;;;;5019316;28;20435;-56
2023/10/20 05:22:27;;;;;;;4.40;2.88;;;;;;;;;;5019328;28;20072;-55
2023/10/20 05:24:52;;;;;;;4.43;2.90;;;;;;;;;;5019126;28;20065;-57
2023/10/20 05:27:17;;;;;;;3.22;2.78;;;;;;;;;;5017061;28;20120;-57
2023/10/20 05:29:42;;;;;;;5.37;3.00;;;;;;;;;;5018298;28;20421;-57
2023/10/20 05:32:08;;;;;;;4.55;3.00;;;;;;;;;;5017417;28;20298;-56
2023/10/20 05:34:34;;;;;;;3.72;3.10;;;;;;;;;;5018120;28;20049;-56
2023/10/20 05:36:59;;;;;;;4.40;2.90;;;;;;;;;;5018707;28;20128;-57
2023/10/20 05:39:25;;;;;;;4.28;2.95;;;;;;;;;;5011754;28;20063;-55
2023/10/20 05:41:50;;;;;;;3.50;3.20;;;;;;;;;;5016617;28;20041;-59
2023/10/20 05:44:21;;;;;;;3.83;3.10;;;;;;;;;;5017827;28;20617;-57
2023/10/20 05:46:47;;;;;;;3.85;2.88;;;;;;;;;;5017611;28;20703;-54
2023/10/20 05:49:12;;;;;;;3.97;2.90;;;;;;;;;;5018797;28;20033;-57
2023/10/20 05:51:37;;;;;;;4.00;3.13;;;;;;;;;;5018388;28;20124;-56
2023/10/20 05:54:03;;;;;;;4.93;2.93;;;;;;;;;;5018411;28;20453;-56
2023/10/20 05:56:29;;;;;;;5.75;2.75;;;;;;;;;;5018561;28;20291;-55
2023/10/20 05:58:54;;;;;;;4.32;2.88;;;;;;;;;;5012908;28;20069;-57
2023/10/20 06:01:19;;;;;;;4.20;3.28;;;;;;;;;;5015589;28;20040;-56
2023/10/20 06:03:44;;;;;;;4.60;3.30;;;;;;;;;;5018061;28;20053;-57
2023/10/20 06:06:10;;;;;;;3.90;2.70;;;;;;;;;;5018535;28;20045;-56
2023/10/20 06:08:35;;;;;;;4.13;2.85;;;;;;;;;;5016559;28;20073;-56
2023/10/20 06:11:04;;;;;;;3.92;2.90;;;;;;;;;;5017283;28;20037;-57
2023/10/20 06:13:34;;;;;;;3.50;2.92;;;;;;;;;;5016477;28;20098;-56
2023/10/20 06:16:09;;;;;;;4.78;2.88;;;;;;;;;;5012786;28;20037;-56
2023/10/20 06:18:37;;;;;;;3.70;2.70;;;;;;;;;;5018713;28;20104;-57
2023/10/20 06:21:03;;;;;;;4.15;2.83;;;;;;;;;;5017179;28;20037;-55
2023/10/20 06:23:29;;;;;;;3.75;2.70;;;;;;;;;;5017000;28;20454;-55
2023/10/20 06:25:55;;;;;;;3.80;2.92;;;;;;;;;;5017436;28;20037;-57
2023/10/20 06:28:21;;;;;;;3.55;2.60;;;;;;;;;;5017212;28;20114;-55
2023/10/20 06:30:47;;;;;;;3.13;2.63;;;;;;;;;;5015731;28;20125;-55
2023/10/20 06:35:52;;;;;;;3.63;2.67;;;;;;;;;;5016909;28;20041;-57
2023/10/20 06:38:35;;;;;;;3.50;2.92;;;;;;;;;;5016839;28;20029;-55
2023/10/20 06:41:01;;;;;;;4.72;2.97;;;;;;;;;;5016677;28;20081;-57
2023/10/20 06:43:26;;;;;;;3.88;2.95;;;;;;;;;;5016695;28;20107;-56
2023/10/20 06:45:59;;;;;;;4.68;2.97;;;;;;;;;;5016084;28;20041;-56
2023/10/20 06:48:24;;;;;;;3.85;2.75;;;;;;;;;;5013160;28;20374;-57
2023/10/20 06:50:50;;;;;;;4.13;3.03;;;;;;;;;;5014753;28;20052;-57
2023/10/20 06:53:15;;;;;;;3.53;2.92;;;;;;;;;;5016220;28;20033;-56
2023/10/20 06:55:41;;;;;;;5.75;2.75;;;;;;;;;;5015468;28;20852;-56
2023/10/20 06:58:06;;;;;;;3.53;2.97;;;;;;;;;;5016732;28;20565;-55
2023/10/20 07:00:32;;;;;;;5.00;3.23;;;;;;;;;;5012786;28;20042;-55
2023/10/20 07:02:57;;;;;;;4.07;2.97;;;;;;;;;;5014121;28;20637;-57
2023/10/20 07:05:23;;;;;;;3.80;3.03;;;;;;;;;;5017068;28;20331;-56
2023/10/20 07:07:49;;;;;;;3.50;2.95;;;;;;;;;;5010092;28;20299;-55
2023/10/20 07:10:17;;;;;;;3.97;2.58;;;;;;;;;;5021047;28;20029;-55
2023/10/20 07:12:43;;;;;;;3.47;2.90;;;;;;;;;;5019857;28;20076;-55
2023/10/20 07:15:08;;;;;;;4.00;2.83;;;;;;;;;;5019882;28;20076;-56
2023/10/20 07:17:34;;;;;;;4.50;2.88;;;;;;;;;;5015258;28;20087;-56
2023/10/20 07:20:00;;;;;;;3.50;2.70;;;;;;;;;;5015861;28;20044;-56
2023/10/20 07:22:26;;;;;;;3.60;2.90;;;;;;;;;;5016145;28;20033;-56
2023/10/20 07:24:52;;;;;;;4.35;2.95;;;;;;;;;;5015613;28;20029;-56
2023/10/20 07:27:17;;;;;;;3.78;2.80;;;;;;;;;;5014394;28;20470;-57
2023/10/20 07:29:43;;;;;;;3.80;3.00;;;;;;;;;;5016710;28;20041;-57
2023/10/20 07:32:09;;;;;;;3.33;2.92;;;;;;;;;;5016381;28;20038;-56
2023/10/20 07:34:35;;;;;;;4.10;2.70;;;;;;;;;;5017086;28;20065;-56
2023/10/20 07:37:00;;;;;;;4.10;3.20;;;;;;;;;;5019582;28;20359;-57
2023/10/20 07:39:25;;;;;;;3.67;2.83;;;;;;;;;;5020450;28;20022;-57
2023/10/20 07:41:52;;;;;;;3.33;2.65;;;;;;;;;;5016717;28;20030;-56
2023/10/20 07:44:18;;;;;;;4.53;3.17;;;;;;;;;;5018376;28;20432;-57
2023/10/20 07:46:43;;;;;;;4.82;3.03;;;;;;;;;;5021962;28;20032;-55
2023/10/20 07:49:11;;;;;;;5.72;3.00;;;;;;;;;;5015086;28;20096;-58
2023/10/20 07:51:37;;;;;;;3.65;2.67;;;;;;;;;;5018925;28;20035;-58
2023/10/20 07:54:03;;;;;;;3.15;2.60;;;;;;;;;;5014557;28;20128;-56
2023/10/20 07:56:28;;;;;;;3.40;2.80;;;;;;;;;;5019383;28;20419;-57
2023/10/20 07:58:53;;;;;;;3.65;2.70;;;;;;;;;;5012880;28;20075;-58
2023/10/20 08:01:19;;;;;;;8.87;3.90;;;;;;;;;;5013360;28;20037;-56
2023/10/20 08:03:47;;;;;;;6.63;4.15;;;;;;;;;;5014488;28;20701;-56
2023/10/20 08:06:12;;;;;;;6.35;3.78;;;;;;;;;;5015420;28;20030;-56
2023/10/20 08:08:38;;;;;;;6.25;3.58;;;;;;;;;;5016410;28;20041;-55
2023/10/20 08:11:04;;;;;;;6.65;4.13;;;;;;;;;;5016087;28;20087;-55
2023/10/20 08:13:29;;;;;;;7.68;4.28;;;;;;;;;;5009658;28;20036;-55
2023/10/20 08:15:54;;;;;;;5.33;4.10;;;;;;;;;;5016433;28;20357;-55
2023/10/20 08:18:19;;;;;;;6.28;4.30;;;;;;;;;;5017432;28;20279;-56
2023/10/20 08:20:45;;;;;;;8.50;4.30;;;;;;;;;;5015675;28;20506;-56
2023/10/20 08:23:10;;;;;;;5.05;3.30;;;;;;;;;;5010820;28;20300;-57
2023/10/20 08:25:38;;;;;;;4.30;3.30;;;;;;;;;;5021599;28;20034;-57
2023/10/20 08:28:04;;;;;;;10.32;4.22;;;;;;;;;;5019257;28;20521;-57
2023/10/20 08:30:30;;;;;;;5.18;3.53;;;;;;;;;;5016805;28;20063;-57
2023/10/20 08:32:55;;;;;;;6.30;3.30;;;;;;;;;;5018153;28;20057;-58
2023/10/20 08:35:21;;;;;;;5.00;3.40;;;;;;;;;;5018941;28;20312;-58
2023/10/20 08:37:46;;;;;;;5.80;3.47;;;;;;;;;;5018151;28;20013;-57
2023/10/20 08:40:12;;;;;;;6.47;3.65;;;;;;;;;;5019947;28;20511;-56
2023/10/20 08:42:40;;;;;;;5.88;3.42;;;;;;;;;;5017653;28;20018;-56
2023/10/20 08:45:15;;;;;;;7.18;3.15;;;;;;;;;;5019486;28;20013;-56
2023/10/20 08:47:41;;;;;;;6.15;4.00;;;;;;;;;;5020724;28;20029;-57
2023/10/20 08:50:07;;;;;;;6.05;3.90;;;;;;;;;;5021787;28;20025;-57
2023/10/20 08:52:33;;;;;;;6.20;3.70;;;;;;;;;;5001674;28;20362;-56
2023/10/20 08:54:58;;;;;;;7.20;3.90;;;;;;;;;;5020104;28;20053;-56
2023/10/20 08:57:24;;;;;;;6.47;4.32;;;;;;;;;;5019782;28;20403;-56
2023/10/20 08:59:52;;;;;;;6.88;4.05;;;;;;;;;;5017649;28;20025;-58
2023/10/20 09:02:18;;;;;;;6.68;3.88;;;;;;;;;;5016731;28;20413;-57
2023/10/20 09:04:43;;;;;;;9.07;4.30;;;;;;;;;;5015792;28;20037;-58
2023/10/20 09:07:13;;;;;;;8.27;4.10;;;;;;;;;;5018703;28;20033;-56
2023/10/20 09:09:39;;;;;;;7.75;5.30;;;;;;;;;;5021931;28;20048;-59
2023/10/20 09:12:05;;;;;;;6.90;4.43;;;;;;;;;;5018107;28;20045;-56
2023/10/20 09:14:31;;;;;;;7.53;4.45;;;;;;;;;;5016464;28;20041;-56
2023/10/20 09:16:59;;;;;;;6.20;3.97;;;;;;;;;;5018653;28;20092;-58
2023/10/20 09:19:24;;;;;;;7.78;4.55;;;;;;;;;;5017981;28;20122;-56
2023/10/20 09:21:50;;;;;;;7.93;4.18;;;;;;;;;;5017445;28;20080;-56
2023/10/20 09:24:17;;;;;;;8.63;4.32;;;;;;;;;;5015349;28;20116;-57
2023/10/20 09:26:44;;;;;;;8.07;4.57;;;;;;;;;;5019409;28;20038;-57
2023/10/20 09:29:10;;;;;;;8.05;4.13;;;;;;;;;;5017132;28;20038;-56
2023/10/20 09:31:35;;;;;;;7.07;4.32;;;;;;;;;;5017611;28;20695;-57
2023/10/20 09:34:01;;;;;;;7.90;4.00;;;;;;;;;;5017782;28;20958;-57
2023/10/20 09:36:29;;;;;;;7.83;4.50;;;;;;;;;;5016081;28;20455;-56
2023/10/20 09:38:55;;;;;;;9.15;3.97;;;;;;;;;;5016914;28;20373;-57
2023/10/20 09:41:21;;;;;;;8.15;4.72;;;;;;;;;;5020950;28;20037;-57
2023/10/20 09:43:47;;;;;;;7.45;4.22;;;;;;;;;;5022613;28;20547;-57
2023/10/20 09:46:14;;;;;;;6.95;4.13;;;;;;;;;;5026326;28;20030;-58
2023/10/20 09:48:40;;;;;;;10.80;5.00;;;;;;;;;;5022131;28;20172;-56
2023/10/20 09:51:05;;;;;;;10.15;4.43;;;;;;;;;;5019982;28;20030;-58
2023/10/20 09:53:31;;;;;;;9.07;4.17;;;;;;;;;;5023039;28;20524;-58
2023/10/20 09:55:56;;;;;;;7.77;4.30;;;;;;;;;;5019397;28;20304;-56
2023/10/20 09:58:25;;;;;;;8.83;4.20;;;;;;;;;;5020179;28;20795;-56
2023/10/20 10:00:51;;;;;;;6.10;4.00;;;;;;;;;;5022455;28;20311;-58
2023/10/20 10:03:27;;;;;;;6.30;4.13;;;;;;;;;;5019636;28;20394;-58
2023/10/20 10:05:52;;;;;;;8.05;4.53;;;;;;;;;;5023533;28;20045;-57
2023/10/20 10:08:19;;;;;;;11.27;4.83;;;;;;;;;;5023083;28;20056;-58
2023/10/20 10:10:44;;;;;;;11.32;4.80;;;;;;;;;;5023543;28;20272;-58
2023/10/20 10:13:09;;;;;;;7.00;4.20;;;;;;;;;;5016183;28;20029;-57
2023/10/20 10:15:38;;;;;;;10.15;4.25;;;;;;;;;;5020812;28;20363;-57
2023/10/20 10:18:11;;;;;;;7.82;4.30;;;;;;;;;;5023996;28;20025;-57
2023/10/20 10:20:46;;;;;;;8.40;4.25;;;;;;;;;;5022167;28;20048;-56
2023/10/20 10:23:14;;;;;;;8.55;4.32;;;;;;;;;;5018132;28;20187;-55
2023/10/20 10:25:46;;;;;;;10.45;4.43;;;;;;;;;;5018059;28;20128;-55
2023/10/20 10:28:15;;;;;;;6.85;4.22;;;;;;;;;;5019887;28;20038;-56
2023/10/20 10:30:40;;;;;;;9.20;4.03;;;;;;;;;;5020912;28;20136;-56
2023/10/20 10:33:10;;;;;;;6.38;4.10;;;;;;;;;;5017196;28;20045;-55
2023/10/20 10:35:38;;;;;;;9.13;3.85;;;;;;;;;;5017635;28;20053;-56
2023/10/20 10:38:15;;;;;;;5.97;3.88;;;;;;;;;;5015384;28;20647;-56
2023/10/20 10:40:43;;;;;;;7.50;3.78;;;;;;;;;;5014046;28;20045;-58
2023/10/20 10:43:12;;;;;;;6.03;4.05;;;;;;;;;;5015380;28;20152;-57
2023/10/20 10:45:38;;;;;;;10.23;4.20;;;;;;;;;;5017286;28;20398;-56
2023/10/20 10:48:07;;;;;;;8.93;3.95;;;;;;;;;;5015597;28;20298;-57
2023/10/20 10:50:32;;;;;;;6.60;4.05;;;;;;;;;;5017324;28;20056;-57
2023/10/20 10:52:58;;;;;;;10.82;4.18;;;;;;;;;;5017107;28;20731;-55
2023/10/20 10:55:24;;;;;;;8.10;3.67;;;;;;;;;;5016197;28;20156;-54
2023/10/20 10:57:50;;;;;;;6.30;3.40;;;;;;;;;;5019055;28;20041;-55
2023/10/20 11:00:16;;;;;;;8.52;3.45;;;;;;;;;;5016059;28;20026;-55
2023/10/20 11:02:44;;;;;;;7.70;3.92;;;;;;;;;;5011827;28;20049;-55
2023/10/20 11:05:10;;;;;;;6.25;3.50;;;;;;;;;;5016016;28;20128;-57
2023/10/20 11:07:36;;;;;;;6.25;3.40;;;;;;;;;;5016819;28;20409;-54
2023/10/20 11:10:02;;;;;;;8.20;3.33;;;;;;;;;;5018019;28;20030;-54
2023/10/20 11:12:27;;;;;;;7.88;3.13;;;;;;;;;;5017310;28;20036;-55
2023/10/20 11:15:11;;;;;;;8.47;3.50;;;;;;;;;;5015189;28;20034;-56
2023/10/20 11:17:36;;;;;;;5.80;2.83;;;;;;;;;;5018157;28;20284;-56
2023/10/20 11:20:01;;;;;;;6.97;3.20;;;;;;;;;;5018022;28;20033;-56
2023/10/20 11:22:26;;;;;;;12.20;4.00;;;;;;;;;;5018214;28;20489;-57
2023/10/20 11:24:55;;;;;;;8.63;3.50;;;;;;;;;;5016226;28;20307;-55
2023/10/20 11:27:20;;;;;;;9.48;3.35;;;;;;;;;;5017603;28;20284;-55
2023/10/20 11:29:45;;;;;;;8.93;3.07;;;;;;;;;;5015146;28;20485;-55
2023/10/20 11:32:13;;;;;;;8.88;3.30;;;;;;;;;;5016098;28;20358;-56
2023/10/20 11:34:39;;;;;;;8.27;3.22;;;;;;;;;;5016053;28;20144;-56
2023/10/20 11:37:04;;;;;;;6.90;3.38;;;;;;;;;;5016344;28;20421;-55
2023/10/20 11:39:31;;;;;;;7.75;3.22;;;;;;;;;;5015071;28;20120;-55
2023/10/20 11:41:56;;;;;;;8.32;3.00;;;;;;;;;;5016031;28;20021;-55
2023/10/20 11:44:24;;;;;;;7.75;3.58;;;;;;;;;;5015087;28;20037;-55
2023/10/20 11:46:50;;;;;;;11.32;3.33;;;;;;;;;;5015935;28;20402;-56
2023/10/20 11:49:15;;;;;;;8.93;3.00;;;;;;;;;;5016287;28;20029;-55
2023/10/20 11:51:41;;;;;;;9.00;3.00;;;;;;;;;;5018139;28;20461;-55
2023/10/20 11:54:06;;;;;;;8.38;3.13;;;;;;;;;;5017185;28;20052;-55
2023/10/20 11:56:32;;;;;;;11.00;3.00;;;;;;;;;;5014343;28;20470;-55
2023/10/20 11:58:58;;;;;;;8.57;3.15;;;;;;;;;;5016704;28;20045;-55
2023/10/20 12:01:23;;;;;;;7.60;2.95;;;;;;;;;;5016195;28;20079;-55
2023/10/20 12:03:49;;;;;;;8.27;3.28;;;;;;;;;;5014760;28;20033;-55
2023/10/20 12:06:14;;;;;;;7.18;2.95;;;;;;;;;;5012213;28;20563;-56
2023/10/20 12:08:41;;;;;;;13.40;3.70;;;;;;;;;;5015576;28;20109;-55
2023/10/20 12:11:06;;;;;;;6.22;2.95;;;;;;;;;;5016962;28;20398;-55
2023/10/20 12:13:36;;;;;;;8.05;3.00;;;;;;;;;;5016155;28;20492;-57
2023/10/20 12:16:01;;;;;;;6.57;2.83;;;;;;;;;;5016293;28;20156;-55
2023/10/20 12:18:27;;;;;;;8.20;3.07;;;;;;;;;;5015887;28;20660;-56
2023/10/20 12:20:52;;;;;;;8.40;3.17;;;;;;;;;;5014157;28;20295;-55
2023/10/20 12:23:18;;;;;;;8.35;3.13;;;;;;;;;;5013775;28;20299;-55
2023/10/20 12:25:44;;;;;;;9.13;3.00;;;;;;;;;;5013452;28;20055;-55
2023/10/20 12:28:10;;;;;;;8.17;3.10;;;;;;;;;;5015398;28;20124;-55
2023/10/20 12:30:35;;;;;;;7.95;2.80;;;;;;;;;;5009078;28;20276;-57
2023/10/20 12:33:01;;;;;;;7.43;3.20;;;;;;;;;;5017879;28;20044;-56
2023/10/20 12:35:26;;;;;;;10.52;3.03;;;;;;;;;;5014549;28;20049;-55
2023/10/20 12:37:51;;;;;;;8.32;3.00;;;;;;;;;;5015065;28;22291;-55
2023/10/20 12:40:18;;;;;;;8.45;3.22;;;;;;;;;;5014821;28;20048;-55
2023/10/20 12:42:43;;;;;;;10.35;3.10;;;;;;;;;;5017438;28;20105;-54
2023/10/20 12:45:09;;;;;;;10.70;2.92;;;;;;;;;;5019026;28;20459;-54
2023/10/20 12:47:35;;;;;;;8.02;3.08;;;;;;;;;;5020463;28;20317;-57
2023/10/20 12:50:00;;;;;;;8.57;2.70;;;;;;;;;;5023090;28;20367;-56
2023/10/20 12:52:25;;;;;;;7.60;2.65;;;;;;;;;;5020537;28;20033;-55
2023/10/20 12:54:52;;;;;;;9.50;2.55;;;;;;;;;;5020925;28;20045;-54
2023/10/20 12:57:17;;;;;;;6.82;2.90;;;;;;;;;;5018404;28;20615;-54
2023/10/20 12:59:43;;;;;;;8.00;2.85;;;;;;;;;;5019568;28;20057;-56
2023/10/20 13:02:09;;;;;;;9.57;2.88;;;;;;;;;;5021000;28;20037;-56
2023/10/20 13:04:34;;;;;;;7.72;2.60;;;;;;;;;;5012569;28;20034;-57
2023/10/20 13:07:00;;;;;;;10.57;2.70;;;;;;;;;;5022429;28;20505;-57
2023/10/20 13:09:25;;;;;;;8.85;2.70;;;;;;;;;;5021152;28;20038;-58
2023/10/20 13:11:50;;;;;;;10.03;2.60;;;;;;;;;;5024768;28;20030;-56
2023/10/20 13:14:15;;;;;;;9.27;2.45;;;;;;;;;;5015402;28;20446;-56
2023/10/20 13:16:41;;;;;;;11.50;2.30;;;;;;;;;;5017156;28;20026;-58
2023/10/20 13:19:06;;;;;;;7.93;2.45;;;;;;;;;;5014903;28;20132;-58
2023/10/20 13:21:31;;;;;;;7.27;2.33;;;;;;;;;;5023890;28;20037;-56
2023/10/20 13:23:57;;;;;;;12.65;2.67;;;;;;;;;;5021369;28;20272;-56
2023/10/20 13:26:22;;;;;;;8.25;2.35;;;;;;;;;;5020518;28;20540;-56
2023/10/20 13:28:47;;;;;;;10.27;2.28;;;;;;;;;;5020996;28;20026;-56
2023/10/20 13:31:16;;;;;;;7.13;2.45;;;;;;;;;;5021191;28;20107;-55
2023/10/20 13:33:41;;;;;;;7.78;1.90;;;;;;;;;;5021438;28;20513;-56
2023/10/20 13:36:09;;;;;;;10.35;2.35;;;;;;;;;;5018502;28;20049;-57
2023/10/20 13:38:37;;;;;;;9.02;2.17;;;;;;;;;;5034172;28;20038;-56
2023/10/20 13:41:02;;;;;;;9.38;2.20;;;;;;;;;;5019532;28;20029;-58
2023/10/20 13:43:28;;;;;;;9.20;2.50;;;;;;;;;;5020150;28;20041;-57
2023/10/20 13:45:53;;;;;;;6.50;1.85;;;;;;;;;;5019002;28;20030;-56
2023/10/20 13:48:18;;;;;;;8.90;2.27;;;;;;;;;;5021324;28;20379;-56
2023/10/20 13:50:43;;;;;;;7.53;2.30;;;;;;;;;;5019929;28;20407;-56
2023/10/20 13:53:10;;;;;;;9.10;2.40;;;;;;;;;;5021915;28;20280;-56
2023/10/20 13:55:35;;;;;;;9.95;2.25;;;;;;;;;;5017701;28;20140;-56
2023/10/20 13:58:01;;;;;;;6.75;2.08;;;;;;;;;;5019387;28;20113;-56
2023/10/20 14:00:26;;;;;;;9.98;2.60;;;;;;;;;;5023779;28;20026;-57
2023/10/20 14:02:51;;;;;;;9.80;2.30;;;;;;;;;;5022212;28;20037;-56
2023/10/20 14:05:18;;;;;;;7.37;1.80;;;;;;;;;;5019649;28;20413;-59
2023/10/20 14:07:47;;;;;;;10.40;1.92;;;;;;;;;;5018173;28;20288;-57
2023/10/20 14:10:12;;;;;;;8.93;2.30;;;;;;;;;;5017726;28;20025;-57
2023/10/20 14:12:38;;;;;;;9.83;1.83;;;;;;;;;;5020099;28;20037;-56
2023/10/20 14:15:03;;;;;;;6.05;1.80;;;;;;;;;;5015284;28;20320;-56
2023/10/20 14:17:29;;;;;;;7.50;1.63;;;;;;;;;;5020874;28;20041;-56
2023/10/20 14:19:54;;;;;;;7.55;1.80;;;;;;;;;;5020149;28;20037;-57
2023/10/20 14:22:19;;;;;;;10.70;2.20;;;;;;;;;;5019372;28;20044;-57
2023/10/20 14:24:45;;;;;;;7.37;1.60;;;;;;;;;;5017699;28;20063;-59
2023/10/20 14:27:10;;;;;;;6.32;2.00;;;;;;;;;;5017407;28;20296;-56
2023/10/20 14:29:35;;;;;;;8.25;2.30;;;;;;;;;;5018328;28;20029;-56
2023/10/20 14:32:01;;;;;;;7.07;1.90;;;;;;;;;;5018814;28;20477;-56
2023/10/20 14:34:26;;;;;;;8.57;1.75;;;;;;;;;;5019473;28;20304;-55
2023/10/20 14:36:51;;;;;;;7.53;1.98;;;;;;;;;;5019391;28;20029;-54
2023/10/20 14:39:17;;;;;;;8.27;2.10;;;;;;;;;;5018104;28;20037;-55
2023/10/20 14:41:43;;;;;;;8.15;2.08;;;;;;;;;;5019477;28;20295;-55
2023/10/20 14:44:08;;;;;;;7.70;2.20;;;;;;;;;;5020116;28;20034;-55
2023/10/20 14:46:33;;;;;;;7.28;2.10;;;;;;;;;;5020713;28;20056;-54
2023/10/20 14:48:58;;;;;;;7.23;1.93;;;;;;;;;;5020449;28;20036;-55
2023/10/20 14:51:24;;;;;;;11.02;2.30;;;;;;;;;;5021742;28;20283;-58
2023/10/20 14:53:49;;;;;;;7.87;2.43;;;;;;;;;;5019168;28;20034;-55
2023/10/20 14:56:16;;;;;;;4.13;1.90;;;;;;;;;;5030918;28;20810;-54
2023/10/20 14:58:41;;;;;;;5.03;1.70;;;;;;;;;;5017366;28;20288;-55
2023/10/20 15:01:06;;;;;;;10.10;1.77;;;;;;;;;;5015256;28;20044;-56
2023/10/20 15:03:31;;;;;;;9.60;2.03;;;;;;;;;;5016397;28;20605;-56
2023/10/20 15:05:57;;;;;;;9.10;2.05;;;;;;;;;;5017155;28;20066;-56
2023/10/20 15:08:23;;;;;;;9.43;2.00;;;;;;;;;;5015009;28;20649;-56
2023/10/20 15:10:48;;;;;;;11.77;2.20;;;;;;;;;;5018407;28;20291;-56